CheckWX is a tool to help pilots better visualize weather data.  It is not intended as a substitute for an official pre-flight weather briefing.

14:48:06 UTC

LTBV TAF
Imsık Airport
Turkey
TAF LTBV 231340Z 2315/2324 26012KT 9999 FEW035 BECMG 2315/2316 VRB02KT CAVOK BECMG 2318/2321 01013KT

Mar-23@
15:00 UTC

Mar-23 @ 15:00 UTC

Mar-24@
00:00 UTC

Mar-24 @ 00:00 UTC

TAF LTBV 231340Z 2315/2324 26012KT 9999 FEW035
Wind
  • 260° at 12 KTS
Cloud Levels
  • Few at 3,500' AGL

Mar-23@
15:00 UTC

Mar-23 @ 15:00 UTC

Mar-23@
18:00 UTC

Mar-23 @ 18:00 UTC

BECMG 2315/2316 VRB02KT CAVOK

Becoming

Becoming Conditions expected by Sat, Mar 23, 2019 @ 16:00 UTC

Wind
  • Variable at 2 KTS
Conditions
No significant weather
Cloud Levels
  • No significant clouds

Mar-23@
18:00 UTC

Mar-23 @ 18:00 UTC

Mar-24@
00:00 UTC

Mar-24 @ 00:00 UTC

BECMG 2318/2321 01013KT

Becoming

Becoming Conditions expected by Sat, Mar 23, 2019 @ 21:00 UTC

Wind
  • 010° at 13 KTS
Conditions
No significant weather
Cloud Levels
  • No significant clouds